Time;durP1;ratioP1;P1;durP2;ratioP2;P2;SDS_P1;SDS_P2;PMS_P1;PMS_P2;Temp;Humidity;BMP_temperature;BMP_pressure;BME280_temperature;BME280_humidity;BME280_pressure;Samples;Min_cycle;Max_cycle;Signal;HPM_P1;HPM_P2
2022/05/07 00:02:14;;;;;;;1.23;0.80;;;10.10;99.90;;;;;;5076010;28;20444;-83
2022/05/07 00:04:43;;;;;;;0.63;0.57;;;10.10;99.90;;;;;;5076121;28;20810;-83
2022/05/07 00:07:10;;;;;;;0.83;0.60;;;10.10;99.90;;;;;;5076032;28;20449;-83
2022/05/07 00:09:38;;;;;;;1.17;0.70;;;10.10;99.90;;;;;;5075814;28;20539;-83
2022/05/07 00:12:06;;;;;;;2.83;1.33;;;10.00;99.90;;;;;;5076010;28;20930;-84
2022/05/07 00:14:33;;;;;;;2.10;0.70;;;10.00;99.90;;;;;;5075456;28;21080;-83
2022/05/07 00:19:46;;;;;;;0.40;0.40;;;9.90;99.90;;;;;;5075476;28;20575;-83
2022/05/07 00:22:12;;;;;;;3.57;1.00;;;9.90;99.90;;;;;;5076068;28;20881;-83
2022/05/07 00:24:40;;;;;;;0.40;0.40;;;9.90;99.90;;;;;;5075451;28;20483;-83
2022/05/07 00:27:07;;;;;;;1.87;0.93;;;9.80;99.90;;;;;;5075599;28;20452;-83
2022/05/07 00:29:34;;;;;;;0.50;0.50;;;9.80;99.90;;;;;;5075535;28;20529;-83
2022/05/07 00:32:01;;;;;;;0.93;0.90;;;9.80;99.90;;;;;;5075331;28;20476;-83
2022/05/07 00:34:27;;;;;;;4.20;1.13;;;9.80;99.90;;;;;;5075439;28;20484;-83
2022/05/07 00:36:54;;;;;;;0.87;0.87;;;9.80;99.90;;;;;;5075115;28;20957;-84
2022/05/07 00:39:21;;;;;;;0.40;0.40;;;9.80;99.90;;;;;;5075057;28;20453;-83
2022/05/07 00:41:49;;;;;;;3.03;0.50;;;9.70;99.90;;;;;;5075384;28;20413;-84
2022/05/07 00:44:15;;;;;;;0.40;0.40;;;9.60;99.90;;;;;;5074470;28;21088;-83
2022/05/07 00:46:42;;;;;;;2.10;1.03;;;9.60;99.90;;;;;;5075318;28;20444;-83
2022/05/07 00:49:09;;;;;;;0.83;0.80;;;9.50;99.90;;;;;;5075049;28;20475;-83
2022/05/07 00:51:35;;;;;;;0.50;0.50;;;9.50;99.90;;;;;;5075280;28;20445;-83
2022/05/07 00:54:03;;;;;;;1.17;0.60;;;9.40;99.90;;;;;;5074983;28;20489;-83
2022/05/07 00:56:31;;;;;;;0.43;0.43;;;9.40;99.90;;;;;;5075016;28;20210;-83
2022/05/07 00:59:00;;;;;;;0.37;0.30;;;9.30;99.90;;;;;;5074921;28;20548;-83
2022/05/07 01:01:27;;;;;;;1.63;0.67;;;9.30;99.90;;;;;;5074904;28;20456;-83
2022/05/07 01:03:54;;;;;;;0.40;0.40;;;9.30;99.90;;;;;;5074902;28;20445;-84
2022/05/07 01:06:21;;;;;;;0.40;0.40;;;9.20;99.90;;;;;;5074790;28;20453;-83
2022/05/07 01:08:49;;;;;;;0.93;0.47;;;9.20;99.90;;;;;;5074414;28;20959;-84
2022/05/07 01:11:18;;;;;;;1.20;1.10;;;9.10;99.90;;;;;;5074652;28;20452;-84
2022/05/07 01:13:46;;;;;;;0.60;0.33;;;9.10;99.90;;;;;;5074330;28;21007;-83
2022/05/07 01:16:15;;;;;;;0.47;0.40;;;9.10;99.90;;;;;;5074836;28;20457;-83
2022/05/07 01:18:43;;;;;;;0.60;0.40;;;9.10;99.90;;;;;;5074300;28;20448;-83
2022/05/07 01:21:14;;;;;;;0.50;0.50;;;9.10;99.90;;;;;;5074510;28;20480;-83
2022/05/07 01:23:42;;;;;;;0.70;0.50;;;9.10;99.90;;;;;;5074255;28;20482;-83
2022/05/07 01:26:09;;;;;;;3.27;0.50;;;9.10;99.90;;;;;;5074472;28;20468;-83
2022/05/07 01:28:36;;;;;;;0.40;0.30;;;9.10;99.90;;;;;;5074305;28;20452;-83
2022/05/07 01:31:03;;;;;;;1.33;0.33;;;9.20;99.90;;;;;;5074301;28;20532;-83
2022/05/07 01:33:33;;;;;;;0.60;0.60;;;9.20;99.90;;;;;;5073723;28;20868;-83
2022/05/07 01:36:01;;;;;;;0.77;0.50;;;9.20;99.90;;;;;;5074423;28;20460;-83
2022/05/07 01:38:29;;;;;;;1.43;0.60;;;9.20;99.90;;;;;;5074131;28;20488;-83
2022/05/07 01:40:56;;;;;;;0.30;0.30;;;9.20;99.90;;;;;;5074083;28;20496;-85
2022/05/07 01:43:23;;;;;;;0.47;0.47;;;9.10;99.90;;;;;;5074225;28;20445;-83
2022/05/07 01:45:49;;;;;;;1.80;1.07;;;9.20;99.90;;;;;;5074258;28;20452;-83
2022/05/07 01:48:15;;;;;;;5.40;0.57;;;9.10;99.90;;;;;;5073958;28;20456;-83
2022/05/07 01:50:43;;;;;;;1.33;0.37;;;9.10;99.90;;;;;;5073709;28;20991;-83
2022/05/07 01:53:14;;;;;;;0.60;0.60;;;9.00;99.90;;;;;;5073951;28;20248;-83
2022/05/07 01:55:42;;;;;;;0.87;0.87;;;9.00;99.90;;;;;;5073055;28;20472;-83
2022/05/07 01:58:08;;;;;;;1.80;0.50;;;8.90;99.90;;;;;;5073474;28;20944;-83
2022/05/07 02:00:35;;;;;;;0.83;0.70;;;8.90;99.90;;;;;;5073483;28;20999;-83
2022/05/07 02:03:03;;;;;;;0.40;0.40;;;8.90;99.90;;;;;;5073762;28;20445;-83
2022/05/07 02:05:30;;;;;;;0.40;0.40;;;9.00;99.90;;;;;;5073717;28;20443;-83
2022/05/07 02:07:57;;;;;;;0.93;0.60;;;9.00;99.90;;;;;;5073383;28;20429;-84
2022/05/07 02:10:25;;;;;;;1.53;0.40;;;8.90;99.90;;;;;;5073652;28;20492;-83
2022/05/07 02:12:53;;;;;;;0.40;0.30;;;8.80;99.90;;;;;;5073562;28;20447;-83
2022/05/07 02:15:20;;;;;;;0.40;0.40;;;8.80;99.90;;;;;;5073448;28;20484;-83
2022/05/07 02:17:47;;;;;;;0.50;0.40;;;8.70;99.90;;;;;;5073562;28;20445;-83
2022/05/07 02:20:14;;;;;;;0.47;0.47;;;8.70;99.90;;;;;;5073466;28;20579;-83
2022/05/07 02:22:40;;;;;;;0.50;0.50;;;8.70;99.90;;;;;;5073504;28;20451;-83
2022/05/07 02:25:09;;;;;;;1.07;0.40;;;8.60;99.90;;;;;;5073502;28;20453;-83
2022/05/07 02:27:35;;;;;;;0.40;0.40;;;8.60;99.90;;;;;;5073431;28;20459;-83
2022/05/07 02:30:04;;;;;;;0.77;0.50;;;8.60;99.90;;;;;;5073331;28;20464;-83
2022/05/07 02:32:31;;;;;;;0.47;0.47;;;8.60;99.90;;;;;;5073251;28;20480;-83
2022/05/07 02:34:57;;;;;;;0.77;0.50;;;8.60;99.90;;;;;;5073280;28;20491;-83
2022/05/07 02:37:24;;;;;;;0.43;0.43;;;8.50;99.90;;;;;;5073183;28;20456;-83
2022/05/07 02:39:53;;;;;;;0.30;0.30;;;8.50;99.90;;;;;;5073306;28;20473;-83
2022/05/07 02:42:36;;;;;;;0.50;0.40;;;8.50;99.90;;;;;;5073286;28;20453;-83
2022/05/07 02:45:06;;;;;;;0.33;0.33;;;8.50;99.90;;;;;;5073287;28;20791;-83
2022/05/07 02:47:33;;;;;;;0.90;0.90;;;8.50;99.90;;;;;;5073199;28;20464;-83
2022/05/07 02:50:00;;;;;;;0.70;0.30;;;8.50;99.90;;;;;;5073155;28;20590;-83
2022/05/07 02:52:26;;;;;;;0.40;0.30;;;8.50;99.90;;;;;;5073197;28;20455;-83
2022/05/07 02:54:53;;;;;;;1.10;0.43;;;8.40;99.90;;;;;;5073146;28;20485;-83
2022/05/07 02:57:20;;;;;;;2.50;0.50;;;8.50;99.90;;;;;;5073201;28;20452;-84
2022/05/07 02:59:47;;;;;;;0.77;0.50;;;8.40;99.90;;;;;;5073004;28;20472;-83
2022/05/07 03:02:15;;;;;;;1.90;0.63;;;8.40;99.90;;;;;;5073166;28;20797;-84
2022/05/07 03:04:41;;;;;;;1.90;0.70;;;8.40;99.90;;;;;;5073120;28;20449;-84
2022/05/07 03:07:08;;;;;;;1.47;0.37;;;8.40;99.90;;;;;;5076280;28;20440;-83
2022/05/07 03:09:35;;;;;;;0.60;0.60;;;8.30;99.90;;;;;;5077003;28;20856;-83
2022/05/07 03:12:01;;;;;;;0.50;0.43;;;8.30;99.90;;;;;;5077118;28;20457;-84
2022/05/07 03:14:28;;;;;;;0.47;0.30;;;8.30;99.90;;;;;;5076900;28;20481;-83
2022/05/07 03:16:55;;;;;;;0.57;0.43;;;8.30;99.90;;;;;;5076681;28;20433;-83
2022/05/07 03:19:23;;;;;;;0.80;0.50;;;8.20;99.90;;;;;;5076915;28;20465;-84
2022/05/07 03:21:50;;;;;;;0.30;0.30;;;8.20;99.90;;;;;;5076895;28;20440;-83
2022/05/07 03:24:16;;;;;;;0.80;0.43;;;8.20;99.90;;;;;;5076477;28;20813;-84
2022/05/07 03:26:44;;;;;;;0.30;0.30;;;8.10;99.90;;;;;;5076749;28;20460;-84
2022/05/07 03:29:10;;;;;;;0.50;0.47;;;8.10;99.90;;;;;;5076603;28;20473;-84
2022/05/07 03:31:39;;;;;;;0.30;0.30;;;8.10;99.90;;;;;;5076171;28;20453;-84
2022/05/07 03:34:05;;;;;;;0.40;0.40;;;8.10;99.90;;;;;;5076570;28;20923;-83
2022/05/07 03:36:34;;;;;;;0.30;0.30;;;8.00;99.90;;;;;;5076391;28;20433;-84
2022/05/07 03:39:00;;;;;;;0.70;0.40;;;8.00;99.90;;;;;;5076419;28;20829;-84
2022/05/07 03:41:27;;;;;;;0.80;0.40;;;8.00;99.90;;;;;;5076419;28;20452;-83
2022/05/07 03:43:54;;;;;;;2.80;0.60;;;8.00;99.90;;;;;;5076382;28;20472;-84
2022/05/07 03:46:21;;;;;;;0.40;0.40;;;8.00;99.90;;;;;;5076367;28;20447;-84
2022/05/07 03:48:48;;;;;;;0.37;0.37;;;7.90;99.90;;;;;;5076220;28;20468;-84
2022/05/07 03:51:15;;;;;;;0.47;0.47;;;7.90;99.90;;;;;;5075925;28;20956;-83
2022/05/07 03:53:42;;;;;;;0.30;0.30;;;7.90;99.90;;;;;;5076274;28;20451;-83
2022/05/07 03:56:09;;;;;;;0.40;0.40;;;7.90;99.90;;;;;;5075888;28;20487;-83
2022/05/07 03:58:37;;;;;;;0.87;0.50;;;7.90;99.90;;;;;;5075731;28;20948;-84
2022/05/07 04:01:04;;;;;;;0.40;0.33;;;7.90;99.90;;;;;;5076022;28;20447;-83
2022/05/07 04:03:31;;;;;;;0.50;0.30;;;7.90;99.90;;;;;;5076340;28;20440;-83
2022/05/07 04:05:59;;;;;;;0.40;0.33;;;7.90;99.90;;;;;;5076404;28;20494;-83
2022/05/07 04:08:26;;;;;;;0.40;0.40;;;7.90;99.90;;;;;;5075668;28;20939;-83
2022/05/07 04:10:54;;;;;;;0.70;0.30;;;7.90;99.90;;;;;;5075928;28;20472;-83
2022/05/07 04:13:20;;;;;;;0.30;0.30;;;7.90;99.90;;;;;;5075895;28;20448;-84
2022/05/07 04:15:47;;;;;;;1.23;0.40;;;7.90;99.90;;;;;;5075429;28;20480;-83
2022/05/07 04:18:14;;;;;;;0.40;0.40;;;7.90;99.90;;;;;;5074977;28;20440;-83
2022/05/07 04:20:41;;;;;;;0.70;0.50;;;8.00;99.90;;;;;;5075756;28;20526;-83
2022/05/07 04:23:08;;;;;;;0.60;0.40;;;8.00;99.90;;;;;;5075348;28;20975;-83
2022/05/07 04:25:35;;;;;;;1.70;0.50;;;8.00;99.90;;;;;;5075692;28;20455;-83
2022/05/07 04:28:03;;;;;;;1.90;0.60;;;8.00;99.90;;;;;;5075649;28;20449;-83
2022/05/07 04:30:30;;;;;;;0.40;0.30;;;8.00;99.90;;;;;;5075213;28;20449;-84
2022/05/07 04:32:57;;;;;;;1.67;0.60;;;8.00;99.90;;;;;;5075215;28;20849;-83
2022/05/07 04:35:24;;;;;;;0.37;0.33;;;8.00;99.90;;;;;;5075439;28;20516;-84
2022/05/07 04:37:50;;;;;;;0.50;0.50;;;8.10;99.90;;;;;;5075443;28;20456;-84
2022/05/07 04:40:17;;;;;;;0.40;0.40;;;8.10;99.90;;;;;;5075339;28;20460;-84
2022/05/07 04:42:44;;;;;;;0.50;0.50;;;8.20;99.90;;;;;;5075359;28;20448;-83
2022/05/07 04:45:13;;;;;;;0.43;0.43;;;8.20;99.90;;;;;;5075008;28;20474;-84
2022/05/07 04:47:40;;;;;;;1.03;0.30;;;8.30;99.90;;;;;;5074868;28;20898;-84
2022/05/07 04:50:07;;;;;;;0.40;0.40;;;8.30;99.90;;;;;;5075121;28;20468;-83
2022/05/07 04:52:34;;;;;;;0.40;0.30;;;8.40;99.90;;;;;;5075115;28;20448;-83
2022/05/07 04:55:02;;;;;;;2.50;0.40;;;8.40;99.90;;;;;;5074947;28;20477;-83
2022/05/07 04:57:30;;;;;;;2.33;0.83;;;8.50;99.90;;;;;;5074807;28;20492;-83
2022/05/07 04:59:57;;;;;;;1.13;1.13;;;8.50;99.90;;;;;;5074623;28;20484;-83
2022/05/07 05:02:25;;;;;;;0.50;0.50;;;8.60;99.90;;;;;;5074972;28;20460;-84
2022/05/07 05:04:52;;;;;;;0.40;0.40;;;8.60;99.90;;;;;;5074881;28;20859;-84
2022/05/07 05:07:18;;;;;;;0.30;0.30;;;8.70;99.90;;;;;;5074869;28;20447;-84
2022/05/07 05:09:45;;;;;;;0.40;0.30;;;8.70;99.90;;;;;;5074527;28;21041;-84
2022/05/07 05:12:12;;;;;;;0.60;0.50;;;8.80;99.90;;;;;;5074850;28;20463;-84
2022/05/07 05:17:24;;;;;;;0.40;0.40;;;8.90;99.90;;;;;;5074568;28;20412;-84
2022/05/07 05:19:51;;;;;;;0.57;0.57;;;9.00;99.90;;;;;;5074568;28;20464;-83
2022/05/07 05:22:18;;;;;;;0.40;0.40;;;9.00;99.90;;;;;;5074740;28;20456;-84
2022/05/07 05:24:45;;;;;;;2.83;0.63;;;9.10;99.90;;;;;;5074514;28;20448;-84
2022/05/07 05:27:12;;;;;;;0.67;0.67;;;9.20;99.90;;;;;;5074121;28;20971;-84
2022/05/07 05:29:38;;;;;;;0.87;0.87;;;9.30;99.90;;;;;;5074151;28;20827;-84
2022/05/07 05:32:06;;;;;;;0.70;0.57;;;9.30;99.90;;;;;;5074112;28;20480;-83
2022/05/07 05:34:34;;;;;;;0.30;0.30;;;9.40;99.90;;;;;;5074285;28;20772;-84
2022/05/07 05:37:01;;;;;;;0.60;0.57;;;9.50;99.90;;;;;;5074263;28;20464;-84
2022/05/07 05:39:28;;;;;;;0.73;0.70;;;9.60;99.90;;;;;;5074133;28;20473;-84
2022/05/07 05:41:54;;;;;;;0.87;0.40;;;9.60;99.90;;;;;;5074370;28;20452;-83
2022/05/07 05:44:21;;;;;;;0.43;0.43;;;9.70;99.90;;;;;;5074179;28;20818;-83
2022/05/07 05:46:48;;;;;;;0.40;0.40;;;9.70;99.90;;;;;;5074307;28;20453;-84
2022/05/07 05:49:15;;;;;;;0.43;0.43;;;9.90;99.90;;;;;;5073723;28;20460;-83
2022/05/07 05:51:43;;;;;;;0.40;0.40;;;10.00;99.90;;;;;;5073598;28;20448;-83
2022/05/07 05:54:09;;;;;;;2.83;0.57;;;10.20;99.90;;;;;;5073904;28;20445;-83
2022/05/07 05:56:36;;;;;;;3.13;0.53;;;10.40;99.90;;;;;;5073841;28;20492;-84
2022/05/07 05:59:03;;;;;;;1.00;1.00;;;10.60;99.90;;;;;;5073469;28;20468;-83
2022/05/07 06:01:29;;;;;;;3.80;0.50;;;10.80;99.90;;;;;;5073900;28;20460;-83
2022/05/07 06:03:56;;;;;;;0.50;0.30;;;11.20;99.90;;;;;;5073740;28;20456;-83
2022/05/07 06:06:23;;;;;;;0.50;0.50;;;11.40;99.90;;;;;;5073771;28;20421;-83
2022/05/07 06:08:51;;;;;;;2.50;2.17;;;11.80;99.90;;;;;;5073582;28;20449;-84
2022/05/07 06:11:19;;;;;;;2.23;1.03;;;12.00;99.90;;;;;;5073563;28;20421;-83
2022/05/07 06:13:47;;;;;;;0.60;0.60;;;12.30;99.90;;;;;;5073635;28;20449;-83
2022/05/07 06:16:14;;;;;;;0.30;0.30;;;12.50;99.90;;;;;;5073575;28;20469;-83
2022/05/07 06:18:41;;;;;;;0.90;0.60;;;12.80;99.90;;;;;;5073449;28;20460;-83
2022/05/07 06:21:07;;;;;;;1.03;0.57;;;13.10;99.90;;;;;;5073505;28;20460;-83
2022/05/07 06:23:34;;;;;;;0.40;0.40;;;13.30;99.90;;;;;;5073224;28;20819;-83
2022/05/07 06:28:46;;;;;;;2.07;0.57;;;14.10;99.90;;;;;;5073342;28;21011;-83
2022/05/07 06:31:13;;;;;;;4.10;1.00;;;14.60;99.90;;;;;;5073118;28;20429;-83
2022/05/07 06:33:40;;;;;;;0.60;0.60;;;14.90;99.90;;;;;;5073001;28;20487;-83
2022/05/07 06:36:07;;;;;;;0.90;0.80;;;15.20;99.90;;;;;;5073478;28;20495;-83
2022/05/07 06:38:34;;;;;;;2.20;0.87;;;15.40;99.90;;;;;;5073365;28;20452;-83
2022/05/07 06:41:03;;;;;;;1.20;0.70;;;15.60;99.90;;;;;;5072868;28;20449;-83
2022/05/07 06:43:30;;;;;;;1.47;0.67;;;15.80;99.90;;;;;;5073276;28;20437;-84
2022/05/07 06:45:57;;;;;;;1.07;0.80;;;16.10;99.90;;;;;;5073166;28;20544;-83
2022/05/07 06:48:24;;;;;;;0.67;0.67;;;16.40;99.90;;;;;;5073196;28;20445;-83
2022/05/07 06:50:51;;;;;;;1.00;0.90;;;16.40;99.90;;;;;;5073079;28;20473;-83
2022/05/07 06:53:18;;;;;;;1.53;1.00;;;16.60;99.90;;;;;;5073124;28;20449;-83
2022/05/07 06:55:59;;;;;;;2.20;1.83;;;16.90;99.90;;;;;;5072895;28;20476;-83
2022/05/07 06:58:29;;;;;;;0.80;0.80;;;17.20;99.90;;;;;;5073170;28;20443;-83
2022/05/07 07:00:57;;;;;;;1.13;0.80;;;17.70;99.90;;;;;;5073081;28;20476;-83
2022/05/07 07:03:24;;;;;;;1.00;0.90;;;18.10;99.90;;;;;;5073329;28;20452;-83
2022/05/07 07:05:52;;;;;;;1.90;1.10;;;18.80;99.90;;;;;;5073113;28;20443;-83
2022/05/07 07:08:20;;;;;;;1.63;1.30;;;19.70;99.90;;;;;;5072984;28;20443;-83
2022/05/07 07:10:47;;;;;;;1.30;1.07;;;20.60;99.90;;;;;;5072952;28;20226;-82
2022/05/07 07:13:16;;;;;;;1.02;0.93;;;21.30;99.90;;;;;;5073025;28;20198;-83
2022/05/07 07:15:44;;;;;;;1.15;1.15;;;21.80;99.90;;;;;;5072810;28;20222;-83
2022/05/07 07:18:11;;;;;;;2.00;1.08;;;22.10;98.20;;;;;;5072953;28;20206;-83
2022/05/07 07:20:40;;;;;;;1.80;1.58;;;22.40;94.70;;;;;;5072470;28;20636;-83
2022/05/07 07:23:10;;;;;;;2.75;1.92;;;22.90;93.60;;;;;;5072832;28;20202;-83
2022/05/07 07:25:36;;;;;;;1.00;0.90;;;23.20;91.20;;;;;;5072574;28;20688;-83
2022/05/07 07:28:03;;;;;;;2.15;1.30;;;23.70;88.80;;;;;;5072708;28;20681;-83
2022/05/07 07:30:30;;;;;;;2.40;1.00;;;24.30;86.70;;;;;;5072744;28;20226;-83
2022/05/07 07:32:58;;;;;;;0.90;0.90;;;24.50;81.50;;;;;;5072558;28;20242;-83
2022/05/07 07:35:25;;;;;;;1.45;1.35;;;24.60;79.40;;;;;;5072434;28;20222;-83
2022/05/07 07:37:52;;;;;;;1.60;1.50;;;24.70;78.00;;;;;;5072715;28;20206;-83
2022/05/07 07:40:19;;;;;;;2.30;1.90;;;24.60;77.10;;;;;;5072279;28;20598;-83
2022/05/07 07:42:46;;;;;;;3.53;2.15;;;24.50;76.80;;;;;;5072308;28;20199;-84
2022/05/07 07:48:01;;;;;;;3.40;1.55;;;24.60;76.20;;;;;;5073004;28;20187;-83
2022/05/07 07:50:30;;;;;;;1.15;1.05;;;24.70;75.80;;;;;;5072639;28;20310;-84
2022/05/07 07:52:59;;;;;;;1.55;1.45;;;25.00;75.30;;;;;;5073859;28;20217;-83
2022/05/07 07:55:26;;;;;;;1.55;1.45;;;25.70;71.60;;;;;;5076083;28;20218;-83
2022/05/07 07:57:57;;;;;;;1.13;1.08;;;26.30;71.90;;;;;;5076131;28;20200;-83
2022/05/07 08:00:24;;;;;;;1.77;1.67;;;27.10;66.80;;;;;;5076163;28;20224;-83
2022/05/07 08:02:53;;;;;;;1.40;1.30;;;27.50;63.70;;;;;;5075868;28;20192;-84
2022/05/07 08:05:25;;;;;;;1.38;1.27;;;28.50;64.00;;;;;;5075763;28;20252;-84
2022/05/07 08:13:21;;;;;;;1.73;1.58;;;30.90;56.40;;;;;;5075930;28;20197;-84
2022/05/07 08:15:48;;;;;;;1.63;1.52;;;30.90;54.60;;;;;;5075787;28;20222;-83
2022/05/07 08:18:15;;;;;;;3.10;1.88;;;30.50;52.60;;;;;;5075823;28;20209;-83
2022/05/07 08:20:44;;;;;;;3.55;2.10;;;29.80;52.80;;;;;;5075421;28;20219;-83
2022/05/07 08:23:11;;;;;;;2.53;2.33;;;29.00;53.50;;;;;;5075671;28;20204;-83
2022/05/07 08:25:39;;;;;;;2.45;2.10;;;28.40;52.50;;;;;;5075692;28;20201;-84
2022/05/07 08:28:06;;;;;;;1.33;1.23;;;27.80;54.70;;;;;;5075690;28;20202;-83
2022/05/07 08:30:33;;;;;;;1.92;1.73;;;27.10;55.00;;;;;;5075737;28;20243;-83
2022/05/07 08:33:00;;;;;;;1.52;1.42;;;26.50;57.40;;;;;;5075429;28;20237;-82
2022/05/07 08:35:27;;;;;;;3.20;1.90;;;25.90;59.40;;;;;;5075483;28;20350;-83
2022/05/07 08:37:55;;;;;;;2.28;2.08;;;25.50;55.30;;;;;;5075628;28;20206;-89
2022/05/07 08:40:22;;;;;;;1.08;0.98;;;25.10;56.30;;;;;;5075778;28;20233;-89
2022/05/07 08:42:49;;;;;;;2.03;1.73;;;24.60;56.20;;;;;;5075934;28;20202;-84
2022/05/07 08:45:16;;;;;;;1.98;1.65;;;24.00;58.40;;;;;;5075484;28;20558;-85
2022/05/07 08:47:44;;;;;;;2.80;1.60;;;23.80;61.00;;;;;;5075132;28;20665;-84
2022/05/07 08:50:12;;;;;;;2.70;1.75;;;23.60;60.50;;;;;;5075181;28;20705;-83
2022/05/07 08:52:42;;;;;;;3.13;1.42;;;23.50;59.00;;;;;;5075520;28;20206;-89
2022/05/07 08:55:13;;;;;;;1.25;1.15;;;23.40;58.10;;;;;;5075945;28;20186;-89
2022/05/07 08:57:40;;;;;;;1.67;1.42;;;23.10;58.10;;;;;;5075550;28;20217;-86
2022/05/07 09:00:09;;;;;;;1.60;1.50;;;22.90;57.10;;;;;;5075169;28;20233;-86
2022/05/07 09:02:41;;;;;;;2.00;1.20;;;22.50;57.80;;;;;;5075114;28;20217;-86
2022/05/07 09:05:09;;;;;;;2.63;1.27;;;22.30;60.90;;;;;;5074863;28;20205;-85
2022/05/07 09:07:36;;;;;;;1.17;0.90;;;22.10;59.00;;;;;;5074963;28;20198;-85
2022/05/07 09:10:10;;;;;;;0.83;0.83;;;21.80;57.70;;;;;;5074799;28;20460;-84
2022/05/07 09:12:38;;;;;;;1.23;1.13;;;21.40;55.80;;;;;;5074833;28;20429;-83
2022/05/07 09:15:07;;;;;;;1.63;1.10;;;21.40;58.10;;;;;;5074748;28;20470;-82
2022/05/07 09:17:34;;;;;;;1.97;1.17;;;21.40;57.20;;;;;;5074541;28;20480;-82
2022/05/07 09:20:11;;;;;;;2.70;1.63;;;21.30;56.80;;;;;;5074630;28;20460;-85
2022/05/07 09:22:49;;;;;;;1.00;0.77;;;21.40;53.40;;;;;;5074565;28;20429;-81
2022/05/07 09:25:19;;;;;;;1.20;0.67;;;21.40;56.50;;;;;;5074625;28;20436;-82
2022/05/07 09:27:47;;;;;;;1.10;1.00;;;21.50;56.90;;;;;;5074283;28;20420;-85
2022/05/07 09:30:22;;;;;;;0.80;0.67;;;21.60;56.50;;;;;;5074108;28;20463;-84
2022/05/07 09:32:51;;;;;;;1.13;0.70;;;21.70;55.60;;;;;;5074347;28;20476;-84
2022/05/07 09:38:05;;;;;;;1.03;0.80;;;21.60;56.70;;;;;;5074082;28;20502;-84
2022/05/07 09:40:37;;;;;;;0.60;0.60;;;21.70;54.70;;;;;;5074078;28;20476;-83
2022/05/07 09:43:06;;;;;;;0.50;0.50;;;21.60;54.30;;;;;;5073985;28;20937;-83
2022/05/07 09:45:34;;;;;;;0.93;0.60;;;21.50;55.90;;;;;;5074276;28;20807;-86
2022/05/07 09:48:01;;;;;;;9.10;1.10;;;21.50;57.40;;;;;;5073945;28;20947;-85
2022/05/07 09:58:41;;;;;;;1.23;0.70;;;22.00;55.50;;;;;;5074189;28;20779;-86
2022/05/07 10:01:44;;;;;;;0.80;0.70;;;22.10;55.00;;;;;;5074402;28;20448;-84
2022/05/07 10:04:42;;;;;;;1.10;1.00;;;22.20;54.40;;;;;;5012005;28;20431;-83
2022/05/07 10:07:34;;;;;;;1.00;0.57;;;22.40;54.10;;;;;;5073954;28;20432;-84
2022/05/07 10:10:16;;;;;;;0.70;0.70;;;22.50;57.10;;;;;;5073523;28;20814;-84
2022/05/07 10:12:45;;;;;;;1.87;1.27;;;22.40;54.40;;;;;;5073851;28;20440;-86
2022/05/07 10:15:17;;;;;;;0.77;0.77;;;22.10;54.90;;;;;;5073720;28;20455;-86
2022/05/07 10:17:44;;;;;;;0.83;0.80;;;21.80;55.00;;;;;;5073628;28;20464;-83
2022/05/07 10:20:14;;;;;;;0.87;0.60;;;21.50;53.70;;;;;;5073469;28;20483;-83
2022/05/07 10:22:41;;;;;;;0.60;0.60;;;21.10;53.80;;;;;;5073580;28;20554;-84
2022/05/07 10:25:11;;;;;;;0.50;0.50;;;21.00;55.30;;;;;;5073556;28;20448;-84
2022/05/07 10:27:39;;;;;;;0.60;0.60;;;21.10;55.50;;;;;;5073186;28;20443;-85
2022/05/07 10:30:08;;;;;;;2.83;0.70;;;21.10;55.70;;;;;;5073485;28;20471;-84
2022/05/07 10:32:54;;;;;;;0.60;0.60;;;20.80;54.60;;;;;;5073171;28;20488;-85
2022/05/07 10:35:41;;;;;;;0.57;0.57;;;21.00;55.70;;;;;;5073391;28;20511;-84
2022/05/07 10:38:08;;;;;;;1.00;0.90;;;21.20;58.80;;;;;;5073390;28;20475;-84
2022/05/07 10:40:35;;;;;;;0.60;0.60;;;21.20;58.20;;;;;;5073385;28;20476;-85
2022/05/07 10:43:03;;;;;;;3.03;0.90;;;21.10;57.70;;;;;;5080497;28;20899;-84
2022/05/07 10:45:40;;;;;;;0.93;0.70;;;20.80;58.20;;;;;;5073425;28;20448;-79
2022/05/07 10:48:17;;;;;;;1.47;0.67;;;20.90;59.30;;;;;;5073119;28;20454;-85
2022/05/07 10:50:51;;;;;;;0.50;0.50;;;21.20;57.20;;;;;;5073244;28;20551;-84
2022/05/07 10:53:18;;;;;;;0.57;0.57;;;21.60;54.40;;;;;;5073255;28;20470;-84
2022/05/07 10:55:45;;;;;;;0.60;0.60;;;22.00;53.60;;;;;;5073313;28;20487;-85
2022/05/07 10:58:12;;;;;;;1.23;1.20;;;22.10;51.40;;;;;;5072933;28;20979;-83
2022/05/07 11:00:38;;;;;;;0.57;0.57;;;22.40;51.10;;;;;;5073128;28;20517;-83
2022/05/07 11:03:07;;;;;;;0.70;0.60;;;23.00;51.30;;;;;;5073209;28;20448;-85
2022/05/07 11:05:36;;;;;;;0.80;0.80;;;23.60;53.30;;;;;;5073157;28;20448;-84
2022/05/07 11:08:04;;;;;;;1.10;1.10;;;23.70;53.50;;;;;;5073214;28;20190;-83
2022/05/07 11:10:32;;;;;;;2.63;0.97;;;23.30;54.50;;;;;;5073004;28;20225;-84
2022/05/07 11:13:05;;;;;;;0.70;0.63;;;23.00;55.20;;;;;;5073064;28;20248;-84
2022/05/07 11:15:32;;;;;;;0.70;0.70;;;22.60;57.60;;;;;;5073121;28;20515;-86
2022/05/07 11:17:59;;;;;;;0.90;0.70;;;22.40;56.90;;;;;;5073199;28;20677;-88
2022/05/07 11:20:31;;;;;;;1.53;1.07;;;22.50;56.30;;;;;;5073183;28;20249;-86
2022/05/07 11:23:03;;;;;;;0.50;0.50;;;22.30;56.20;;;;;;5073445;28;20209;-87
2022/05/07 11:25:31;;;;;;;1.60;0.80;;;22.10;51.10;;;;;;5073213;28;20828;-87
2022/05/07 11:27:58;;;;;;;0.70;0.63;;;21.80;50.60;;;;;;5075986;28;20524;-87
2022/05/07 11:30:25;;;;;;;0.60;0.60;;;21.40;52.20;;;;;;5076968;28;20468;-86
2022/05/07 11:32:53;;;;;;;0.70;0.70;;;21.30;53.40;;;;;;5077105;28;20476;-87
2022/05/07 11:35:25;;;;;;;1.17;0.70;;;21.10;55.80;;;;;;5076971;28;20803;-87
2022/05/07 11:37:51;;;;;;;0.90;0.90;;;21.10;58.20;;;;;;5077031;28;20496;-87
2022/05/07 11:40:29;;;;;;;1.53;1.00;;;21.20;56.30;;;;;;5076920;28;20484;-87
2022/05/07 11:45:37;;;;;;;1.30;0.80;;;20.80;58.50;;;;;;5076435;28;20434;-87
2022/05/07 11:48:13;;;;;;;1.07;0.73;;;20.60;59.90;;;;;;5076428;28;20895;-87
2022/05/07 11:50:42;;;;;;;1.07;1.00;;;20.50;60.00;;;;;;5076665;28;20466;-87
2022/05/07 11:53:13;;;;;;;0.80;0.80;;;20.30;61.70;;;;;;5076715;28;20444;-86
2022/05/07 11:55:43;;;;;;;2.50;0.70;;;20.20;61.10;;;;;;5076537;28;20455;-87
2022/05/07 11:58:14;;;;;;;0.73;0.73;;;20.20;63.00;;;;;;5076733;28;20475;-87
2022/05/07 12:00:42;;;;;;;0.73;0.73;;;20.20;63.70;;;;;;5076588;28;20495;-87
2022/05/07 12:03:09;;;;;;;1.53;0.70;;;20.30;60.40;;;;;;5076429;28;20539;-87
2022/05/07 12:05:40;;;;;;;0.57;0.57;;;20.40;60.50;;;;;;5076061;28;20475;-87
2022/05/07 12:08:14;;;;;;;0.60;0.60;;;20.40;60.50;;;;;;5076447;28;20883;-87
2022/05/07 12:10:42;;;;;;;0.70;0.67;;;20.40;60.00;;;;;;5075979;28;20521;-87
2022/05/07 12:13:09;;;;;;;0.70;0.70;;;20.40;59.30;;;;;;5076371;28;20860;-87
2022/05/07 12:18:21;;;;;;;0.93;0.90;;;20.20;61.00;;;;;;5076493;28;20456;-87
2022/05/07 12:20:48;;;;;;;0.70;0.70;;;20.30;59.30;;;;;;5076065;28;20472;-84
2022/05/07 12:31:43;;;;;;;0.50;0.50;;;20.60;57.30;;;;;;4994519;28;20433;-86
2022/05/07 12:34:09;;;;;;;0.73;0.70;;;20.60;56.50;;;;;;5057288;28;20490;-88
2022/05/07 12:36:36;;;;;;;1.20;0.70;;;20.50;57.80;;;;;;5076151;28;20444;-89
2022/05/07 12:39:03;;;;;;;2.60;1.13;;;20.40;59.70;;;;;;5075921;28;20460;-88
2022/05/07 12:41:31;;;;;;;2.93;0.67;;;20.50;59.90;;;;;;5076029;28;20444;-88
2022/05/07 12:44:00;;;;;;;0.50;0.47;;;20.60;59.20;;;;;;5076074;28;20444;-87
2022/05/07 12:46:27;;;;;;;0.70;0.70;;;20.60;59.30;;;;;;5075895;28;20462;-88
2022/05/07 12:48:55;;;;;;;0.90;0.80;;;20.60;59.10;;;;;;5075682;28;20444;-88
2022/05/07 12:51:22;;;;;;;1.20;1.10;;;20.50;60.00;;;;;;5075793;28;20455;-87
2022/05/07 12:53:49;;;;;;;0.70;0.60;;;20.60;58.40;;;;;;5075642;28;20451;-87
2022/05/07 12:56:16;;;;;;;0.90;0.90;;;20.50;58.30;;;;;;5075794;28;20465;-88
2022/05/07 12:58:44;;;;;;;1.00;0.80;;;20.50;58.20;;;;;;5075149;28;20480;-89
2022/05/07 13:01:12;;;;;;;0.70;0.63;;;20.50;59.10;;;;;;5075739;28;20452;-87
2022/05/07 13:03:39;;;;;;;1.50;0.70;;;20.40;58.80;;;;;;5075716;28;20506;-89
2022/05/07 13:06:06;;;;;;;1.83;0.70;;;20.20;58.90;;;;;;5075574;28;20448;-87
2022/05/07 13:08:33;;;;;;;0.80;0.70;;;20.10;58.80;;;;;;5075428;28;20444;-87
2022/05/07 13:11:00;;;;;;;1.00;0.70;;;20.00;58.70;;;;;;5076011;28;20460;-87
2022/05/07 13:13:27;;;;;;;0.50;0.50;;;19.90;58.50;;;;;;5075062;28;20456;-87
2022/05/07 13:15:55;;;;;;;0.60;0.60;;;20.00;57.60;;;;;;5075532;28;20448;-88
2022/05/07 13:18:21;;;;;;;0.60;0.60;;;20.00;57.70;;;;;;5075172;28;20488;-89
2022/05/07 13:20:49;;;;;;;1.90;0.60;;;20.10;57.40;;;;;;5074726;28;20535;-87
2022/05/07 13:23:16;;;;;;;0.60;0.60;;;20.20;57.20;;;;;;5075202;28;20484;-87
2022/05/07 13:25:43;;;;;;;0.80;0.80;;;20.30;57.20;;;;;;5074934;28;20566;-87
2022/05/07 13:28:10;;;;;;;1.00;0.90;;;20.40;56.30;;;;;;5079102;28;20435;-86
2022/05/07 13:30:36;;;;;;;0.93;0.60;;;20.40;57.60;;;;;;5078932;28;20479;-87
2022/05/07 13:33:05;;;;;;;0.40;0.40;;;20.50;56.60;;;;;;5075183;28;20518;-85
2022/05/07 13:35:31;;;;;;;0.63;0.50;;;20.60;56.40;;;;;;5075150;28;20847;-87
2022/05/07 13:37:58;;;;;;;0.53;0.53;;;20.50;55.40;;;;;;5074674;28;20479;-87